createdAt,value
2023-04-27T00:00:19.097Z,3.50
2023-04-27T00:02:46.824Z,2.83
2023-04-27T00:05:14.021Z,2.90
2023-04-27T00:07:41.338Z,3.00
2023-04-27T00:10:09.137Z,2.93
2023-04-27T00:12:36.005Z,3.33
2023-04-27T00:15:02.968Z,3.40
2023-04-27T00:17:29.883Z,2.63
2023-04-27T00:19:56.778Z,3.03
2023-04-27T00:22:23.625Z,2.83
2023-04-27T00:24:50.449Z,3.37
2023-04-27T00:27:17.294Z,3.20
2023-04-27T00:29:44.339Z,2.67
2023-04-27T00:32:11.537Z,3.63
2023-04-27T00:34:38.925Z,2.40
2023-04-27T00:37:06.076Z,2.87
2023-04-27T00:39:35.558Z,2.80
2023-04-27T00:42:02.445Z,3.50
2023-04-27T00:44:29.311Z,2.83
2023-04-27T00:46:56.572Z,3.00
2023-04-27T00:49:24.175Z,3.40
2023-04-27T00:51:51.517Z,2.70
2023-04-27T00:54:21.228Z,3.03
2023-04-27T00:56:51.968Z,3.33
2023-04-27T00:59:19.860Z,2.43
2023-04-27T01:01:47.689Z,2.53
2023-04-27T01:04:14.937Z,3.43
2023-04-27T01:06:41.981Z,3.67
2023-04-27T01:09:09.295Z,2.60
2023-04-27T01:11:36.463Z,3.60
2023-04-27T01:14:07.548Z,2.90
2023-04-27T01:16:35.386Z,3.40
2023-04-27T01:19:02.435Z,3.27
2023-04-27T01:21:29.315Z,3.30
2023-04-27T01:23:56.169Z,3.53
2023-04-27T01:26:23.094Z,3.10
2023-04-27T01:28:49.952Z,3.00
2023-04-27T01:31:16.829Z,2.90
2023-04-27T01:33:43.729Z,3.37
2023-04-27T01:36:11.113Z,3.47
2023-04-27T01:38:37.995Z,3.10
2023-04-27T01:41:05.882Z,2.60
2023-04-27T01:43:32.731Z,2.90
2023-04-27T01:46:13.699Z,3.07
2023-04-27T01:48:42.407Z,3.10
2023-04-27T01:51:11.147Z,2.90
2023-04-27T01:53:38.088Z,3.43
2023-04-27T01:56:06.687Z,3.10
2023-04-27T01:58:33.542Z,3.57
2023-04-27T02:01:00.413Z,3.00
2023-04-27T02:03:29.444Z,3.33
2023-04-27T02:05:56.448Z,2.97
2023-04-27T02:08:23.296Z,3.00
2023-04-27T02:10:50.163Z,4.20
2023-04-27T02:13:17.642Z,2.80
2023-04-27T02:15:44.560Z,3.10
2023-04-27T02:18:11.450Z,2.90
2023-04-27T02:20:38.369Z,3.27
2023-04-27T02:23:05.216Z,3.03
2023-04-27T02:25:32.092Z,3.40
2023-04-27T02:27:58.934Z,3.70
2023-04-27T02:30:26.244Z,3.50
2023-04-27T02:33:00.740Z,3.10
2023-04-27T02:35:27.699Z,3.30
2023-04-27T02:37:54.551Z,2.93
2023-04-27T02:40:21.473Z,3.30
2023-04-27T02:42:48.316Z,3.30
2023-04-27T02:45:15.187Z,2.93
2023-04-27T02:47:42.075Z,3.50
2023-04-27T02:50:09.730Z,3.80
2023-04-27T02:52:36.880Z,3.63
2023-04-27T02:55:03.763Z,3.73
2023-04-27T02:57:30.713Z,4.50
2023-04-27T02:59:57.629Z,3.80
2023-04-27T03:02:24.655Z,3.93
2023-04-27T03:04:55.274Z,4.00
2023-04-27T03:07:22.764Z,3.77
2023-04-27T03:09:49.641Z,3.63
2023-04-27T03:12:16.531Z,3.80
2023-04-27T03:14:43.419Z,3.50
2023-04-27T03:17:10.463Z,4.20
2023-04-27T03:19:37.360Z,4.33
2023-04-27T03:22:04.242Z,4.87
2023-04-27T03:24:31.141Z,4.00
2023-04-27T03:26:58.375Z,3.83
2023-04-27T03:29:25.306Z,4.10
2023-04-27T03:31:52.249Z,4.60
2023-04-27T03:34:20.923Z,4.57
2023-04-27T03:36:47.813Z,3.67
2023-04-27T03:39:15.019Z,2.90
2023-04-27T03:41:42.388Z,3.90
2023-04-27T03:44:10.745Z,4.10
2023-04-27T03:46:37.691Z,4.37
2023-04-27T03:49:04.610Z,3.67
2023-04-27T03:51:33.234Z,3.63
2023-04-27T03:54:00.416Z,3.40
2023-04-27T03:56:27.851Z,3.90
2023-04-27T03:58:55.949Z,3.63
2023-04-27T04:01:29.442Z,3.60
2023-04-27T04:03:56.600Z,4.00
2023-04-27T04:06:23.712Z,3.67
2023-04-27T04:08:50.687Z,5.30
2023-04-27T04:11:18.018Z,3.70
2023-04-27T04:13:45.163Z,3.40
2023-04-27T04:16:12.196Z,3.70
2023-04-27T04:18:39.751Z,3.80
2023-04-27T04:21:06.821Z,3.40
2023-04-27T04:23:34.764Z,4.13
2023-04-27T04:26:02.563Z,4.00
2023-04-27T04:28:33.851Z,4.07
2023-04-27T04:31:06.502Z,4.10
2023-04-27T04:33:33.655Z,4.80
2023-04-27T04:36:04.396Z,3.40
2023-04-27T04:38:32.943Z,3.70
2023-04-27T04:41:01.100Z,3.30
2023-04-27T04:43:28.478Z,4.20
2023-04-27T04:45:55.419Z,4.40
2023-04-27T04:48:22.315Z,3.67
2023-04-27T04:50:49.192Z,3.70
2023-04-27T04:53:16.120Z,3.67
2023-04-27T04:55:43.082Z,4.17
2023-04-27T04:58:10.738Z,4.83
2023-04-27T05:00:38.168Z,3.97
2023-04-27T05:03:07.419Z,5.03
2023-04-27T05:05:34.724Z,3.90
2023-04-27T05:08:01.613Z,5.00
2023-04-27T05:10:28.521Z,4.03
2023-04-27T05:12:55.403Z,4.20
2023-04-27T05:15:22.290Z,3.50
2023-04-27T05:17:49.242Z,4.13
2023-04-27T05:20:16.390Z,3.77
2023-04-27T05:22:43.254Z,4.17
2023-04-27T05:25:10.122Z,3.90
2023-04-27T05:27:36.962Z,4.27
2023-04-27T05:30:03.901Z,4.33
2023-04-27T05:32:30.823Z,4.00
2023-04-27T05:34:57.737Z,3.80
2023-04-27T05:37:24.604Z,4.13
2023-04-27T05:39:51.464Z,4.27
2023-04-27T05:42:18.324Z,4.07
2023-04-27T05:44:45.232Z,3.60
2023-04-27T05:47:12.124Z,4.93
2023-04-27T05:49:39.155Z,3.60
2023-04-27T05:52:06.027Z,4.27
2023-04-27T05:54:32.929Z,3.60
2023-04-27T05:56:59.799Z,3.53
2023-04-27T05:59:27.476Z,4.93
2023-04-27T06:01:54.405Z,5.00
2023-04-27T06:04:21.430Z,4.60
2023-04-27T06:06:48.637Z,4.73
2023-04-27T06:09:15.755Z,3.67
2023-04-27T06:11:43.536Z,3.70
2023-04-27T06:14:10.471Z,4.40
2023-04-27T06:16:37.370Z,4.10
2023-04-27T06:19:04.261Z,3.80
2023-04-27T06:21:33.691Z,3.37
2023-04-27T06:24:01.136Z,3.93
2023-04-27T06:26:28.261Z,3.57
2023-04-27T06:28:56.216Z,3.90
2023-04-27T06:31:23.244Z,2.70
2023-04-27T06:33:50.214Z,3.67
2023-04-27T06:36:17.207Z,3.20
2023-04-27T06:38:44.180Z,3.03
2023-04-27T06:41:11.158Z,3.37
2023-04-27T06:43:38.263Z,3.17
2023-04-27T06:46:06.708Z,3.53
2023-04-27T06:48:33.612Z,3.03
2023-04-27T06:51:00.656Z,3.00
2023-04-27T06:53:27.501Z,3.60
2023-04-27T06:55:54.357Z,3.57
2023-04-27T06:58:22.137Z,2.77
2023-04-27T07:00:49.346Z,2.80
2023-04-27T07:03:16.435Z,3.30
2023-04-27T07:05:43.485Z,3.23
2023-04-27T07:08:10.556Z,2.93
2023-04-27T07:10:37.501Z,2.97
2023-04-27T07:13:05.524Z,2.70
2023-04-27T07:15:34.331Z,3.10
2023-04-27T07:18:01.306Z,4.40
2023-04-27T07:20:28.231Z,3.30
2023-04-27T07:22:56.032Z,3.23
2023-04-27T07:25:23.001Z,3.70
2023-04-27T07:27:49.913Z,2.40
2023-04-27T07:30:17.863Z,2.70
2023-04-27T07:32:44.895Z,2.77
2023-04-27T07:35:11.843Z,2.93
2023-04-27T07:37:38.735Z,3.30
2023-04-27T07:40:14.778Z,2.40
2023-04-27T07:42:46.269Z,3.10
2023-04-27T07:45:14.022Z,4.03
2023-04-27T07:47:40.937Z,2.40
2023-04-27T07:50:08.654Z,2.40
2023-04-27T07:52:35.973Z,2.37
2023-04-27T07:55:03.868Z,2.53
2023-04-27T07:57:30.769Z,2.77
2023-04-27T07:59:57.864Z,2.37
2023-04-27T08:02:27.057Z,2.37
2023-04-27T08:04:54.213Z,2.70
2023-04-27T08:07:21.705Z,2.23
2023-04-27T08:09:52.576Z,2.47
2023-04-27T08:12:19.470Z,2.80
2023-04-27T08:14:47.185Z,2.73
2023-04-27T08:17:14.068Z,2.40
2023-04-27T08:19:41.498Z,2.23
2023-04-27T08:22:08.508Z,3.00
2023-04-27T08:24:36.305Z,2.90
2023-04-27T08:27:06.301Z,2.80
2023-04-27T08:29:33.577Z,2.63
2023-04-27T08:32:03.063Z,2.80
2023-04-27T08:34:30.973Z,2.53
2023-04-27T08:36:58.030Z,2.70
2023-04-27T08:39:25.542Z,2.80
2023-04-27T08:41:52.466Z,2.00
2023-04-27T08:44:19.342Z,2.20
2023-04-27T08:46:46.321Z,2.10
2023-04-27T08:49:15.948Z,2.80
2023-04-27T08:51:43.524Z,2.27
2023-04-27T08:54:10.372Z,2.00
2023-04-27T08:56:37.202Z,1.93
2023-04-27T08:59:12.890Z,2.27
2023-04-27T09:01:48.864Z,2.70
2023-04-27T09:04:17.786Z,2.13
2023-04-27T09:06:44.883Z,3.60
2023-04-27T09:09:23.442Z,2.40
2023-04-27T09:11:51.022Z,2.23
2023-04-27T09:14:21.127Z,2.00
2023-04-27T09:16:59.613Z,1.90
2023-04-27T09:19:30.744Z,3.50
2023-04-27T09:22:23.983Z,1.87
2023-04-27T09:24:52.484Z,2.30
2023-04-27T09:27:23.397Z,1.63
2023-04-27T09:29:50.287Z,1.70
2023-04-27T09:32:23.360Z,2.30
2023-04-27T09:34:50.293Z,2.33
2023-04-27T09:37:17.263Z,2.40
2023-04-27T09:39:45.830Z,1.97
2023-04-27T09:42:13.376Z,2.07
2023-04-27T09:44:40.532Z,2.00
2023-04-27T09:47:07.847Z,1.90
2023-04-27T09:49:35.907Z,2.10
2023-04-27T09:52:02.777Z,1.90
2023-04-27T09:54:32.259Z,2.00
2023-04-27T09:57:45.583Z,1.63
2023-04-27T10:00:36.872Z,1.53
2023-04-27T10:03:24.040Z,1.93
2023-04-27T10:06:34.654Z,1.90
2023-04-27T10:09:06.381Z,2.03
2023-04-27T10:11:41.733Z,1.70
2023-04-27T10:14:11.266Z,1.67
2023-04-27T10:16:55.416Z,2.17
2023-04-27T10:19:24.396Z,2.07
2023-04-27T10:21:53.003Z,2.57
2023-04-27T10:24:20.030Z,1.83
2023-04-27T10:26:48.123Z,1.97
2023-04-27T10:29:16.489Z,2.40
2023-04-27T10:31:48.715Z,2.13
2023-04-27T10:34:21.384Z,2.30
2023-04-27T10:36:48.528Z,2.17
2023-04-27T10:39:29.892Z,2.30
2023-04-27T10:42:03.466Z,2.53
2023-04-27T10:44:32.432Z,2.00
2023-04-27T10:47:02.575Z,1.90
2023-04-27T10:49:30.706Z,2.37
2023-04-27T10:51:59.683Z,2.30
2023-04-27T10:54:29.875Z,1.83
2023-04-27T10:57:07.927Z,2.10
2023-04-27T10:59:47.382Z,2.10
2023-04-27T11:02:14.325Z,1.90
2023-04-27T11:04:41.788Z,2.20
2023-04-27T11:07:10.287Z,2.00
2023-04-27T11:09:38.728Z,2.10
2023-04-27T11:12:12.241Z,2.37
2023-04-27T11:14:39.155Z,2.00
2023-04-27T11:17:06.338Z,2.20
2023-04-27T11:19:33.286Z,2.50
2023-04-27T11:22:07.019Z,2.30
2023-04-27T11:24:33.991Z,2.10
2023-04-27T11:27:00.911Z,2.00
2023-04-27T11:29:38.991Z,2.30
2023-04-27T11:32:06.215Z,2.10
2023-04-27T11:34:38.861Z,1.40
2023-04-27T11:37:17.844Z,1.60
2023-04-27T11:39:45.809Z,1.70
2023-04-27T11:42:28.509Z,2.10
2023-04-27T11:45:01.102Z,2.20
2023-04-27T11:47:30.603Z,2.30
2023-04-27T11:50:00.793Z,1.87
2023-04-27T11:52:39.969Z,1.90
2023-04-27T11:55:09.255Z,1.30
2023-04-27T11:57:36.734Z,1.73
2023-04-27T12:00:11.001Z,1.90
2023-04-27T12:02:42.284Z,1.97
2023-04-27T12:05:10.125Z,2.07
2023-04-27T12:07:37.330Z,2.40
2023-04-27T12:10:04.891Z,2.13
2023-04-27T12:12:32.019Z,2.27
2023-04-27T12:14:58.915Z,1.90
2023-04-27T12:17:25.797Z,2.23
2023-04-27T12:19:52.684Z,2.00
2023-04-27T12:22:20.953Z,1.73
2023-04-27T12:24:48.029Z,1.90
2023-04-27T12:27:14.904Z,2.20
2023-04-27T12:29:41.947Z,1.53
2023-04-27T12:32:08.856Z,1.70
2023-04-27T12:34:35.894Z,2.00
2023-04-27T12:37:02.757Z,2.00
2023-04-27T12:39:30.280Z,1.67
2023-04-27T12:41:58.268Z,1.83
2023-04-27T12:44:25.187Z,1.80
2023-04-27T12:46:52.208Z,2.03
2023-04-27T12:49:19.150Z,2.03
2023-04-27T12:51:47.865Z,1.83
2023-04-27T12:54:14.998Z,1.97
2023-04-27T12:56:42.275Z,1.80
2023-04-27T12:59:09.375Z,2.00
2023-04-27T13:01:36.632Z,1.73
2023-04-27T13:04:08.589Z,1.97
2023-04-27T13:06:35.598Z,2.40
2023-04-27T13:09:02.701Z,1.77
2023-04-27T13:11:29.624Z,2.63
2023-04-27T13:13:56.530Z,1.50
2023-04-27T13:16:25.374Z,1.93
2023-04-27T13:18:53.337Z,1.50
2023-04-27T13:21:20.442Z,2.17
2023-04-27T13:23:47.938Z,2.80
2023-04-27T13:26:16.222Z,2.27
2023-04-27T13:28:43.569Z,2.60
2023-04-27T13:31:10.817Z,2.07
2023-04-27T13:33:44.687Z,1.90
2023-04-27T13:36:12.992Z,2.10
2023-04-27T13:38:40.365Z,1.93
2023-04-27T13:41:08.110Z,2.17
2023-04-27T13:43:35.576Z,2.20
2023-04-27T13:46:02.976Z,2.57
2023-04-27T13:48:30.920Z,2.10
2023-04-27T13:50:58.430Z,2.00
2023-04-27T13:53:25.843Z,2.13
2023-04-27T13:55:54.684Z,1.60
2023-04-27T13:58:23.711Z,2.40
2023-04-27T14:00:52.861Z,2.20
2023-04-27T14:03:20.218Z,1.93
2023-04-27T14:05:48.792Z,2.00
2023-04-27T14:08:15.872Z,1.87
2023-04-27T14:10:45.078Z,2.00
2023-04-27T14:13:12.509Z,2.20
2023-04-27T14:15:39.384Z,2.10
2023-04-27T14:18:08.027Z,2.10
2023-04-27T14:20:36.255Z,1.53
2023-04-27T14:23:04.892Z,1.80
2023-04-27T14:25:35.162Z,1.70
2023-04-27T14:28:05.188Z,1.60
2023-04-27T14:30:33.206Z,2.27
2023-04-27T14:33:00.179Z,1.97
2023-04-27T14:35:28.040Z,2.23
2023-04-27T14:37:57.053Z,2.37
2023-04-27T14:40:24.146Z,2.07
2023-04-27T14:42:51.040Z,1.80
2023-04-27T14:45:18.877Z,1.53
2023-04-27T14:47:45.930Z,2.60
2023-04-27T14:50:13.124Z,2.10
2023-04-27T14:52:40.084Z,1.97
2023-04-27T14:55:07.809Z,1.80
2023-04-27T14:57:35.405Z,2.00
2023-04-27T15:00:04.880Z,2.07
2023-04-27T15:02:33.826Z,2.30
2023-04-27T15:05:01.260Z,1.93
2023-04-27T15:07:28.174Z,2.30
2023-04-27T15:09:55.431Z,1.87
2023-04-27T15:12:22.333Z,1.93
2023-04-27T15:14:51.564Z,1.70
2023-04-27T15:17:18.577Z,1.73
2023-04-27T15:19:45.488Z,1.80
2023-04-27T15:22:13.476Z,2.10
2023-04-27T15:24:40.726Z,1.90
2023-04-27T15:27:09.734Z,1.47
2023-04-27T15:29:37.467Z,2.00
2023-04-27T15:32:04.581Z,1.53
2023-04-27T15:34:31.872Z,1.93
2023-04-27T15:36:58.776Z,2.43
2023-04-27T15:39:27.226Z,1.93
2023-04-27T15:41:54.164Z,2.20
2023-04-27T15:44:21.092Z,2.00
2023-04-27T15:46:47.993Z,1.87
2023-04-27T15:49:15.096Z,1.70
2023-04-27T15:51:42.251Z,2.17
2023-04-27T15:54:09.173Z,2.13
2023-04-27T15:56:36.070Z,2.03
2023-04-27T15:59:04.511Z,1.67
2023-04-27T16:01:31.613Z,1.60
2023-04-27T16:03:58.656Z,2.10
2023-04-27T16:06:34.583Z,1.90
2023-04-27T16:09:03.411Z,2.20
2023-04-27T16:11:31.508Z,1.83
2023-04-27T16:13:59.458Z,1.90
2023-04-27T16:16:26.901Z,2.33
2023-04-27T16:18:53.956Z,2.30
2023-04-27T16:21:21.795Z,1.80
2023-04-27T16:23:48.837Z,2.43
2023-04-27T16:26:16.095Z,2.50
2023-04-27T16:28:43.456Z,2.10
2023-04-27T16:31:10.838Z,2.17
2023-04-27T16:33:37.793Z,2.10
2023-04-27T16:36:05.068Z,2.30
2023-04-27T16:38:31.959Z,2.87
2023-04-27T16:40:58.909Z,2.17
2023-04-27T16:43:26.114Z,2.23
2023-04-27T16:45:53.042Z,2.47
2023-04-27T16:48:19.955Z,2.80
2023-04-27T16:50:47.301Z,2.77
2023-04-27T16:53:14.970Z,2.90
2023-04-27T16:55:41.941Z,2.60
2023-04-27T16:58:08.844Z,3.17
2023-04-27T17:00:35.983Z,2.77
2023-04-27T17:03:03.066Z,2.30
2023-04-27T17:05:29.999Z,2.20
2023-04-27T17:07:56.898Z,3.00
2023-04-27T17:10:23.858Z,2.70
2023-04-27T17:12:51.203Z,2.83
2023-04-27T17:15:18.486Z,3.87
2023-04-27T17:17:45.558Z,5.00
2023-04-27T17:20:13.278Z,4.20
2023-04-27T17:22:40.368Z,3.40
2023-04-27T17:25:08.588Z,4.10
2023-04-27T17:27:35.528Z,4.17
2023-04-27T17:30:02.587Z,3.23
2023-04-27T17:32:29.556Z,3.17
2023-04-27T17:34:57.527Z,3.17
2023-04-27T17:37:24.465Z,3.73
2023-04-27T17:39:52.933Z,3.10
2023-04-27T17:42:20.105Z,3.23
2023-04-27T17:44:46.968Z,2.60
2023-04-27T17:47:13.993Z,3.70
2023-04-27T17:49:41.047Z,3.50
2023-04-27T17:52:07.935Z,3.37
2023-04-27T17:54:34.798Z,3.20
2023-04-27T17:57:02.030Z,3.07
2023-04-27T17:59:28.957Z,2.60
2023-04-27T18:01:55.983Z,3.00
2023-04-27T18:04:23.192Z,3.50
2023-04-27T18:06:50.399Z,3.10
2023-04-27T18:09:17.567Z,3.00
2023-04-27T18:11:44.482Z,3.43
2023-04-27T18:14:11.466Z,3.50
2023-04-27T18:16:38.396Z,3.80
2023-04-27T18:19:05.335Z,3.97
2023-04-27T18:21:32.720Z,3.17
2023-04-27T18:23:59.644Z,3.80
2023-04-27T18:26:26.719Z,3.73
2023-04-27T18:28:53.714Z,4.13
2023-04-27T18:31:20.779Z,4.07
2023-04-27T18:33:47.823Z,4.23
2023-04-27T18:36:14.721Z,4.20
2023-04-27T18:38:41.680Z,4.60
2023-04-27T18:41:08.609Z,5.13
2023-04-27T18:43:38.744Z,4.73
2023-04-27T18:46:05.988Z,6.47
2023-04-27T18:48:32.914Z,4.33
2023-04-27T18:50:59.884Z,5.80
2023-04-27T18:53:27.872Z,4.63
2023-04-27T18:55:54.951Z,5.43
2023-04-27T18:58:21.873Z,6.00
2023-04-27T19:00:48.749Z,5.20
2023-04-27T19:03:15.828Z,5.63
2023-04-27T19:05:43.246Z,4.50
2023-04-27T19:08:10.408Z,5.43
2023-04-27T19:10:37.409Z,5.90
2023-04-27T19:13:04.296Z,5.07
2023-04-27T19:15:31.253Z,6.33
2023-04-27T19:18:06.846Z,7.57
2023-04-27T19:20:37.274Z,7.47
2023-04-27T19:23:05.157Z,7.50
2023-04-27T19:25:32.107Z,8.20
2023-04-27T19:27:59.069Z,7.10
2023-04-27T19:30:26.031Z,6.47
2023-04-27T19:32:53.021Z,5.93
2023-04-27T19:35:20.480Z,5.00
2023-04-27T19:37:47.411Z,4.40
2023-04-27T19:40:14.959Z,4.30
2023-04-27T19:42:41.936Z,3.47
2023-04-27T19:45:09.081Z,3.17
2023-04-27T19:47:36.234Z,3.80
2023-04-27T19:50:04.773Z,3.50
2023-04-27T19:52:31.802Z,3.30
2023-04-27T19:54:59.886Z,3.27
2023-04-27T19:57:26.782Z,3.10
2023-04-27T19:59:53.696Z,3.60
2023-04-27T20:02:20.732Z,3.67
2023-04-27T20:04:47.905Z,3.70
2023-04-27T20:07:15.015Z,3.43
2023-04-27T20:09:41.927Z,3.00
2023-04-27T20:12:19.440Z,4.27
2023-04-27T20:14:55.772Z,3.20
2023-04-27T20:17:25.597Z,3.03
2023-04-27T20:19:56.122Z,3.90
2023-04-27T20:22:23.869Z,3.07
2023-04-27T20:24:50.896Z,3.40
2023-04-27T20:27:17.871Z,3.20
2023-04-27T20:29:46.547Z,3.70
2023-04-27T20:32:13.573Z,4.47
2023-04-27T20:34:40.490Z,3.40
2023-04-27T20:37:07.501Z,3.50
2023-04-27T20:39:34.988Z,4.03
2023-04-27T20:42:01.904Z,3.00
2023-04-27T20:44:28.835Z,3.27
2023-04-27T20:46:55.818Z,3.10
2023-04-27T20:49:31.767Z,4.37
2023-04-27T20:52:01.637Z,5.57
2023-04-27T20:54:30.940Z,4.70
2023-04-27T20:56:57.844Z,4.47
2023-04-27T20:59:24.752Z,4.53
2023-04-27T21:01:51.615Z,4.57
2023-04-27T21:04:19.022Z,4.87
2023-04-27T21:06:46.166Z,4.20
2023-04-27T21:09:13.085Z,3.77
2023-04-27T21:11:39.973Z,4.00
2023-04-27T21:14:06.859Z,3.97
2023-04-27T21:16:33.848Z,3.87
2023-04-27T21:19:00.805Z,4.40
2023-04-27T21:21:27.718Z,4.80
2023-04-27T21:24:06.746Z,4.40
2023-04-27T21:26:34.986Z,5.13
2023-04-27T21:29:02.429Z,5.57
2023-04-27T21:31:29.465Z,5.13
2023-04-27T21:33:56.365Z,5.73
2023-04-27T21:36:23.585Z,5.90
2023-04-27T21:38:50.487Z,5.67
2023-04-27T21:41:17.446Z,4.87
2023-04-27T21:43:45.014Z,4.50
2023-04-27T21:46:12.103Z,3.83
2023-04-27T21:48:39.085Z,3.37
2023-04-27T21:51:05.987Z,3.90
2023-04-27T21:53:32.999Z,4.07
2023-04-27T21:56:00.264Z,3.50
2023-04-27T21:58:27.175Z,4.13
2023-04-27T22:00:54.093Z,3.90
2023-04-27T22:03:21.786Z,3.30
2023-04-27T22:05:50.278Z,3.40
2023-04-27T22:08:17.773Z,3.43
2023-04-27T22:10:45.307Z,4.77
2023-04-27T22:13:18.349Z,4.60
2023-04-27T22:15:47.149Z,10.97
2023-04-27T22:18:15.418Z,7.93
2023-04-27T22:20:43.124Z,8.20
2023-04-27T22:23:10.800Z,8.30
2023-04-27T22:25:37.770Z,6.97
2023-04-27T22:28:04.849Z,7.50
2023-04-27T22:30:31.784Z,7.57
2023-04-27T22:32:58.790Z,6.90
2023-04-27T22:35:27.635Z,15.87
2023-04-27T22:37:59.710Z,13.93
2023-04-27T22:40:26.883Z,11.27
2023-04-27T22:42:55.055Z,12.10
2023-04-27T22:45:23.178Z,12.90
2023-04-27T22:47:50.372Z,9.60
2023-04-27T22:50:17.319Z,8.50
2023-04-27T22:52:44.578Z,6.80
2023-04-27T22:55:12.668Z,9.97
2023-04-27T22:57:41.300Z,8.80
2023-04-27T23:00:11.059Z,7.40
2023-04-27T23:02:41.806Z,7.40
2023-04-27T23:05:10.619Z,7.40
2023-04-27T23:07:37.943Z,5.80
2023-04-27T23:10:06.072Z,5.67
2023-04-27T23:12:33.347Z,5.47
2023-04-27T23:15:00.534Z,6.00
2023-04-27T23:17:30.403Z,7.27
2023-04-27T23:20:05.432Z,6.30
2023-04-27T23:22:35.638Z,4.80
2023-04-27T23:25:02.519Z,4.67
2023-04-27T23:27:29.404Z,4.50
2023-04-27T23:29:56.495Z,4.30
2023-04-27T23:32:23.412Z,4.63
2023-04-27T23:34:54.850Z,4.23
2023-04-27T23:37:22.942Z,3.87
2023-04-27T23:39:49.829Z,4.27
2023-04-27T23:42:16.823Z,4.60
2023-04-27T23:44:43.789Z,3.67
2023-04-27T23:47:10.714Z,3.70
2023-04-27T23:49:37.650Z,3.60
2023-04-27T23:52:05.060Z,4.17
2023-04-27T23:54:32.430Z,3.93
2023-04-27T23:56:59.388Z,4.20
2023-04-27T23:59:26.367Z,3.80
